createdAt,value
2022-10-06T00:01:24.950Z,70.97
2022-10-06T00:04:21.110Z,71.02
2022-10-06T00:07:21.618Z,71.04
2022-10-06T00:10:28.906Z,71.10
2022-10-06T00:13:17.075Z,71.04
2022-10-06T00:16:06.877Z,71.19
2022-10-06T00:19:01.304Z,71.38
2022-10-06T00:21:52.274Z,71.41
2022-10-06T00:24:50.398Z,71.87
2022-10-06T00:27:40.170Z,71.97
2022-10-06T00:30:44.957Z,71.83
2022-10-06T00:33:41.885Z,71.80
2022-10-06T00:36:31.026Z,71.73
2022-10-06T00:39:22.191Z,71.71
2022-10-06T00:42:38.556Z,71.65
2022-10-06T00:45:24.427Z,71.90
2022-10-06T00:48:19.050Z,72.24
2022-10-06T00:51:31.435Z,72.36
2022-10-06T00:54:21.084Z,72.43
2022-10-06T00:57:15.854Z,72.46
2022-10-06T01:00:06.658Z,72.51
2022-10-06T01:03:21.476Z,72.65
2022-10-06T01:06:26.258Z,72.58
2022-10-06T01:09:14.985Z,72.72
2022-10-06T01:12:24.438Z,72.77
2022-10-06T01:15:22.319Z,72.76
2022-10-06T01:18:28.074Z,72.83
2022-10-06T01:21:27.964Z,72.68
2022-10-06T01:24:23.882Z,72.50
2022-10-06T01:27:15.102Z,72.77
2022-10-06T01:30:12.521Z,72.25
2022-10-06T01:33:09.938Z,72.96
2022-10-06T01:36:05.727Z,73.43
2022-10-06T01:39:11.328Z,73.56
2022-10-06T01:42:18.059Z,73.07
2022-10-06T01:45:30.310Z,73.45
2022-10-06T01:48:23.982Z,73.56
2022-10-06T01:51:09.300Z,73.73
2022-10-06T01:54:22.253Z,74.32
2022-10-06T01:57:39.047Z,74.26
2022-10-06T02:00:44.876Z,74.45
2022-10-06T02:04:02.842Z,74.06
2022-10-06T02:07:20.706Z,73.95
2022-10-06T02:10:17.723Z,73.88
2022-10-06T02:13:36.507Z,73.58
2022-10-06T02:16:31.079Z,73.52
2022-10-06T02:19:58.395Z,73.44
2022-10-06T02:23:01.259Z,73.49
2022-10-06T02:25:56.428Z,73.47
2022-10-06T02:28:46.744Z,73.25
2022-10-06T02:31:43.835Z,73.18
2022-10-06T02:34:50.480Z,73.32
2022-10-06T02:37:50.319Z,73.60
2022-10-06T02:40:47.303Z,74.00
2022-10-06T02:43:51.897Z,73.88
2022-10-06T02:46:56.699Z,73.97
2022-10-06T02:50:04.278Z,74.23
2022-10-06T02:53:08.590Z,74.13
2022-10-06T02:56:20.919Z,73.84
2022-10-06T02:59:15.357Z,74.38
2022-10-06T03:02:10.782Z,75.00
2022-10-06T03:05:16.523Z,74.90
2022-10-06T03:08:29.755Z,74.85
2022-10-06T03:11:41.543Z,74.80
2022-10-06T03:14:56.585Z,74.47
2022-10-06T03:17:54.566Z,74.48
2022-10-06T03:20:43.692Z,74.28
2022-10-06T03:23:47.112Z,75.48
2022-10-06T03:27:09.756Z,75.71
2022-10-06T03:30:15.625Z,75.72
2022-10-06T03:33:18.149Z,75.51
2022-10-06T03:36:34.237Z,75.39
2022-10-06T03:39:35.577Z,75.21
2022-10-06T03:42:32.457Z,75.72
2022-10-06T03:45:24.821Z,76.18
2022-10-06T03:48:34.024Z,75.75
2022-10-06T03:52:03.227Z,75.42
2022-10-06T03:55:13.085Z,75.36
2022-10-06T03:57:59.719Z,75.53
2022-10-06T04:01:21.119Z,75.57
2022-10-06T04:04:33.309Z,76.52
2022-10-06T04:07:53.425Z,76.81
2022-10-06T04:11:08.150Z,76.84
2022-10-06T04:13:56.759Z,76.60
2022-10-06T04:17:24.140Z,76.59
2022-10-06T04:20:36.910Z,76.39
2022-10-06T04:23:44.719Z,77.05
2022-10-06T04:26:38.316Z,77.46
2022-10-06T04:29:27.088Z,77.00
2022-10-06T04:32:30.015Z,76.95
2022-10-06T04:35:19.965Z,76.91
2022-10-06T04:38:22.484Z,76.66
2022-10-06T04:41:29.972Z,76.79
2022-10-06T04:44:23.380Z,77.42
2022-10-06T04:47:13.741Z,77.84
2022-10-06T04:50:02.517Z,77.56
2022-10-06T04:53:07.830Z,77.18
2022-10-06T04:56:02.044Z,76.88
2022-10-06T04:59:06.835Z,76.96
2022-10-06T05:02:21.900Z,76.79
2022-10-06T05:05:27.497Z,77.25
2022-10-06T05:08:30.763Z,77.04
2022-10-06T05:11:45.164Z,76.32
2022-10-06T05:14:49.303Z,76.20
2022-10-06T05:17:55.021Z,76.01
2022-10-06T05:21:06.668Z,75.76
2022-10-06T05:24:04.022Z,76.27
2022-10-06T05:26:57.296Z,76.47
2022-10-06T05:29:56.500Z,76.18
2022-10-06T05:32:42.488Z,75.80
2022-10-06T05:35:31.068Z,75.37
2022-10-06T05:38:25.542Z,75.03
2022-10-06T05:41:33.770Z,74.54
2022-10-06T05:44:14.470Z,73.95
2022-10-06T05:46:57.161Z,73.86
2022-10-06T05:49:41.759Z,73.90
2022-10-06T05:52:18.393Z,73.86
2022-10-06T05:55:07.744Z,73.44
2022-10-06T05:57:45.500Z,72.72
2022-10-06T06:00:25.516Z,71.97
2022-10-06T06:03:02.839Z,71.28
2022-10-06T06:05:37.102Z,71.04
2022-10-06T06:08:11.874Z,70.09
2022-10-06T06:10:44.476Z,70.22
2022-10-06T06:13:26.063Z,69.60
2022-10-06T06:16:04.105Z,69.54
2022-10-06T06:18:40.062Z,69.38
2022-10-06T06:21:14.712Z,69.24
2022-10-06T06:23:46.097Z,69.05
2022-10-06T06:26:17.797Z,68.97
2022-10-06T06:28:57.381Z,68.69
2022-10-06T06:31:30.782Z,69.06
2022-10-06T06:34:06.815Z,68.17
2022-10-06T06:36:35.973Z,67.02
2022-10-06T06:39:08.651Z,65.41
2022-10-06T06:41:38.932Z,62.54
2022-10-06T06:44:08.421Z,62.16
2022-10-06T06:49:06.009Z,59.22
2022-10-06T06:51:34.668Z,60.03
2022-10-06T06:54:02.772Z,58.56
2022-10-06T06:56:35.169Z,58.50
2022-10-06T06:59:10.759Z,59.87
2022-10-06T07:01:45.714Z,59.77
2022-10-06T07:04:15.108Z,58.93
2022-10-06T07:06:42.973Z,58.91
2022-10-06T07:09:12.778Z,58.56
2022-10-06T07:11:40.918Z,58.89
2022-10-06T07:14:10.279Z,58.83
2022-10-06T07:16:55.482Z,59.83
2022-10-06T07:19:41.786Z,59.87
2022-10-06T07:22:27.500Z,60.08
2022-10-06T07:25:10.954Z,61.01
2022-10-06T07:27:46.057Z,61.01
2022-10-06T07:30:20.443Z,60.96
2022-10-06T07:32:49.926Z,61.44
2022-10-06T07:35:20.294Z,61.83
2022-10-06T07:37:48.758Z,61.37
2022-10-06T07:40:19.237Z,61.95
2022-10-06T07:42:48.763Z,62.22
2022-10-06T07:45:40.658Z,62.47
2022-10-06T07:48:11.237Z,62.28
2022-10-06T07:50:39.736Z,62.37
2022-10-06T07:53:09.955Z,62.29
2022-10-06T07:55:41.506Z,62.50
2022-10-06T07:58:23.708Z,62.85
2022-10-06T08:00:55.949Z,63.05
2022-10-06T08:03:23.340Z,63.09
2022-10-06T08:05:58.114Z,62.68
2022-10-06T08:08:25.121Z,63.16
2022-10-06T08:10:55.429Z,63.30
2022-10-06T08:13:22.694Z,63.46
2022-10-06T08:15:50.450Z,63.30
2022-10-06T08:18:41.035Z,63.68
2022-10-06T08:21:23.357Z,62.84
2022-10-06T08:23:51.863Z,61.28
2022-10-06T08:26:20.682Z,61.33
2022-10-06T08:28:50.251Z,60.17
2022-10-06T08:31:21.407Z,60.47
2022-10-06T08:33:49.667Z,60.21
2022-10-06T08:36:19.438Z,59.98
2022-10-06T08:38:50.183Z,59.87
2022-10-06T08:41:44.865Z,59.69
2022-10-06T08:44:18.677Z,59.53
2022-10-06T08:46:55.524Z,58.25
2022-10-06T08:49:27.001Z,59.24
2022-10-06T08:52:20.556Z,59.73
2022-10-06T08:55:11.199Z,59.27
2022-10-06T08:58:00.764Z,59.18
2022-10-06T09:00:36.710Z,59.27
2022-10-06T09:03:04.640Z,58.70
2022-10-06T09:05:32.234Z,59.43
2022-10-06T09:08:18.166Z,59.26
2022-10-06T09:11:17.325Z,59.29
2022-10-06T09:13:53.365Z,59.57
2022-10-06T09:16:32.396Z,59.73
2022-10-06T09:19:13.844Z,60.38
2022-10-06T09:21:45.797Z,60.40
2022-10-06T09:24:18.725Z,60.32
2022-10-06T09:26:48.698Z,59.98
2022-10-06T09:29:15.753Z,60.04
2022-10-06T09:31:49.017Z,60.00
2022-10-06T09:34:46.960Z,59.50
2022-10-06T09:37:14.346Z,58.65
2022-10-06T09:39:51.745Z,59.10
2022-10-06T09:42:18.718Z,58.69
2022-10-06T09:44:51.603Z,58.61
2022-10-06T09:47:34.721Z,58.64
2022-10-06T09:50:20.615Z,59.82
2022-10-06T09:53:03.604Z,59.70
2022-10-06T09:55:33.859Z,59.19
2022-10-06T09:58:01.605Z,58.84
2022-10-06T10:00:30.886Z,58.23
2022-10-06T10:03:04.646Z,58.10
2022-10-06T10:05:37.870Z,57.71
2022-10-06T10:08:13.696Z,58.47
2022-10-06T10:10:41.315Z,57.35
2022-10-06T10:13:19.184Z,58.03
2022-10-06T10:15:56.595Z,58.38
2022-10-06T10:18:26.870Z,58.09
2022-10-06T10:21:06.210Z,57.85
2022-10-06T10:23:39.365Z,57.51
2022-10-06T10:26:18.031Z,58.12
2022-10-06T10:29:03.634Z,57.92
2022-10-06T10:31:39.601Z,57.75
2022-10-06T10:34:24.349Z,56.93
2022-10-06T10:37:00.719Z,57.55
2022-10-06T10:39:42.444Z,56.04
2022-10-06T10:42:20.964Z,57.24
2022-10-06T10:44:55.453Z,57.10
2022-10-06T10:47:27.871Z,57.85
2022-10-06T10:50:04.654Z,57.73
2022-10-06T10:52:38.524Z,56.79
2022-10-06T10:55:28.887Z,56.24
2022-10-06T10:58:04.459Z,56.02
2022-10-06T11:00:37.821Z,56.47
2022-10-06T11:03:04.938Z,55.95
2022-10-06T11:05:56.247Z,56.65
2022-10-06T11:08:35.253Z,56.68
2022-10-06T11:11:09.281Z,55.16
2022-10-06T11:13:44.545Z,55.49
2022-10-06T11:16:39.250Z,55.46
2022-10-06T11:19:20.580Z,55.24
2022-10-06T11:22:12.771Z,55.49
2022-10-06T11:28:09.812Z,55.14
2022-10-06T11:30:54.754Z,55.61
2022-10-06T11:33:29.884Z,54.87
2022-10-06T11:35:56.758Z,54.72
2022-10-06T11:38:42.778Z,52.40
2022-10-06T11:41:28.322Z,51.34
2022-10-06T11:44:00.649Z,53.62
2022-10-06T11:46:37.597Z,52.48
2022-10-06T11:49:28.875Z,51.51
2022-10-06T11:52:15.811Z,50.37
2022-10-06T11:55:13.617Z,48.60
2022-10-06T11:58:41.319Z,48.29
2022-10-06T12:00:56.527Z,47.40
2022-10-06T12:03:29.654Z,47.28
2022-10-06T12:05:57.260Z,47.02
2022-10-06T12:08:39.075Z,47.90
2022-10-06T12:11:42.374Z,47.79
2022-10-06T12:17:19.651Z,49.91
2022-10-06T12:20:24.994Z,50.60
2022-10-06T12:23:04.971Z,52.02
2022-10-06T12:25:50.739Z,52.50
2022-10-06T12:28:39.154Z,52.74
2022-10-06T12:31:17.854Z,52.13
2022-10-06T12:33:46.133Z,51.99
2022-10-06T12:36:22.551Z,52.75
2022-10-06T12:39:02.272Z,53.06
2022-10-06T12:42:07.324Z,53.03
2022-10-06T12:44:40.029Z,53.14
2022-10-06T12:47:28.623Z,52.82
2022-10-06T12:50:03.265Z,52.43
2022-10-06T12:52:39.291Z,52.60
2022-10-06T12:55:37.960Z,51.77
2022-10-06T12:58:04.741Z,51.88
2022-10-06T13:00:39.659Z,51.36
2022-10-06T13:03:09.150Z,51.06
2022-10-06T13:05:36.830Z,51.12
2022-10-06T13:08:06.688Z,51.29
2022-10-06T13:10:33.823Z,51.93
2022-10-06T13:13:01.490Z,50.82
2022-10-06T13:15:34.751Z,51.36
2022-10-06T13:18:07.736Z,51.07
2022-10-06T13:20:41.867Z,51.21
2022-10-06T13:23:29.050Z,51.14
2022-10-06T13:26:04.265Z,52.38
2022-10-06T13:28:52.392Z,52.44
2022-10-06T13:31:23.807Z,52.24
2022-10-06T13:34:11.758Z,52.10
2022-10-06T13:36:43.922Z,51.60
2022-10-06T13:39:18.977Z,52.27
2022-10-06T13:41:56.865Z,52.63
2022-10-06T13:44:56.979Z,52.63
2022-10-06T13:47:25.624Z,52.92
2022-10-06T13:49:57.342Z,53.00
2022-10-06T13:52:34.570Z,53.18
2022-10-06T13:55:02.991Z,53.46
2022-10-06T13:58:03.375Z,53.42
2022-10-06T14:00:57.360Z,53.51
2022-10-06T14:06:17.778Z,53.76
2022-10-06T14:08:57.920Z,53.57
2022-10-06T14:11:29.019Z,52.58
2022-10-06T14:14:05.240Z,52.78
2022-10-06T14:16:32.219Z,53.28
2022-10-06T14:19:03.598Z,53.60
2022-10-06T14:21:38.991Z,53.81
2022-10-06T14:24:26.973Z,54.03
2022-10-06T14:26:55.071Z,54.15
2022-10-06T14:29:22.738Z,54.58
2022-10-06T14:31:49.411Z,54.59
2022-10-06T14:34:19.146Z,54.84
2022-10-06T14:36:48.530Z,54.58
2022-10-06T14:39:15.960Z,54.66
2022-10-06T14:41:43.267Z,55.26
2022-10-06T14:44:12.241Z,55.47
2022-10-06T14:46:41.340Z,55.88
2022-10-06T14:49:10.362Z,55.96
2022-10-06T14:51:38.524Z,56.45
2022-10-06T14:54:07.540Z,56.75
2022-10-06T14:56:37.395Z,57.31
2022-10-06T14:59:06.517Z,57.68
2022-10-06T15:01:35.273Z,57.94
2022-10-06T15:04:11.469Z,57.89
2022-10-06T15:06:57.398Z,58.24
2022-10-06T15:09:24.244Z,58.28
2022-10-06T15:11:52.352Z,58.65
2022-10-06T15:14:19.398Z,59.10
2022-10-06T15:16:46.450Z,59.36
2022-10-06T15:19:13.528Z,59.49
2022-10-06T15:21:45.185Z,59.99
2022-10-06T15:24:15.137Z,60.48
2022-10-06T15:27:01.899Z,61.79
2022-10-06T15:29:32.331Z,61.90
2022-10-06T15:32:05.213Z,61.93
2022-10-06T15:34:34.440Z,62.40
2022-10-06T15:37:01.407Z,62.98
2022-10-06T15:39:30.372Z,63.57
2022-10-06T15:42:00.977Z,63.91
2022-10-06T15:44:32.201Z,64.34
2022-10-06T15:47:06.039Z,65.31
2022-10-06T15:49:40.616Z,65.18
2022-10-06T15:52:14.678Z,65.21
2022-10-06T15:54:42.280Z,65.41
2022-10-06T15:57:15.029Z,65.86
2022-10-06T15:59:51.729Z,66.02
2022-10-06T16:02:26.799Z,66.66
2022-10-06T16:04:56.416Z,67.48
2022-10-06T16:07:23.355Z,67.45
2022-10-06T16:09:52.036Z,67.68
2022-10-06T16:12:29.683Z,67.71
2022-10-06T16:15:01.017Z,67.94
2022-10-06T16:17:30.414Z,69.16
2022-10-06T16:19:57.365Z,69.98
2022-10-06T16:22:29.763Z,70.18
2022-10-06T16:25:00.124Z,70.43
2022-10-06T16:27:31.262Z,70.75
2022-10-06T16:30:05.160Z,71.63
2022-10-06T16:32:36.749Z,71.76
2022-10-06T16:35:17.429Z,72.05
2022-10-06T16:37:52.620Z,72.65
2022-10-06T16:40:19.400Z,73.66
2022-10-06T16:43:02.461Z,73.56
2022-10-06T16:45:36.968Z,73.50
2022-10-06T16:48:03.634Z,74.38
2022-10-06T16:50:30.283Z,75.11
2022-10-06T16:52:57.155Z,74.85
2022-10-06T16:55:40.231Z,74.97
2022-10-06T16:58:12.727Z,75.27
2022-10-06T17:00:39.772Z,75.91
2022-10-06T17:03:11.959Z,76.10
2022-10-06T17:06:10.153Z,75.56
2022-10-06T17:08:46.069Z,75.12
2022-10-06T17:11:24.155Z,74.81
2022-10-06T17:13:59.906Z,74.94
2022-10-06T17:16:36.955Z,75.12
2022-10-06T17:19:10.923Z,74.97
2022-10-06T17:21:47.126Z,75.07
2022-10-06T17:24:28.220Z,74.98
2022-10-06T17:27:04.337Z,74.57
2022-10-06T17:29:36.085Z,75.00
2022-10-06T17:32:02.849Z,75.23
2022-10-06T17:34:45.752Z,75.13
2022-10-06T17:37:23.155Z,75.12
2022-10-06T17:39:57.069Z,74.42
2022-10-06T17:42:23.786Z,74.39
2022-10-06T17:44:58.442Z,74.02
2022-10-06T17:47:33.701Z,74.23
2022-10-06T17:50:07.795Z,74.85
2022-10-06T17:52:35.739Z,74.21
2022-10-06T17:55:17.179Z,73.85
2022-10-06T17:57:46.394Z,73.62
2022-10-06T18:00:22.020Z,73.46
2022-10-06T18:02:56.093Z,73.67
2022-10-06T18:05:33.227Z,73.63
2022-10-06T18:08:05.335Z,73.81
2022-10-06T18:10:57.776Z,73.71
2022-10-06T18:13:35.502Z,73.17
2022-10-06T18:16:18.951Z,72.82
2022-10-06T18:18:54.198Z,72.44
2022-10-06T18:21:35.435Z,72.25
2022-10-06T18:24:18.434Z,72.46
2022-10-06T18:27:01.784Z,72.81
2022-10-06T18:29:39.946Z,72.60
2022-10-06T18:34:06.913Z,72.07
2022-10-06T18:38:02.401Z,71.22
2022-10-06T18:40:37.953Z,71.07
2022-10-06T18:43:18.031Z,71.58
2022-10-06T18:46:09.632Z,72.08
2022-10-06T18:49:00.308Z,71.83
2022-10-06T18:51:40.398Z,71.73
2022-10-06T18:54:10.990Z,72.21
2022-10-06T18:56:41.738Z,71.85
2022-10-06T18:59:15.349Z,72.62
2022-10-06T19:01:56.672Z,74.47
2022-10-06T19:04:26.281Z,74.83
2022-10-06T19:07:01.308Z,74.86
2022-10-06T19:09:28.459Z,75.09
2022-10-06T19:12:06.377Z,74.73
2022-10-06T19:14:47.290Z,74.70
2022-10-06T19:17:24.769Z,75.33
2022-10-06T19:19:57.414Z,74.76
2022-10-06T19:22:37.017Z,75.02
2022-10-06T19:25:12.219Z,75.17
2022-10-06T19:27:49.555Z,75.29
2022-10-06T19:30:26.599Z,74.57
2022-10-06T19:32:55.844Z,74.00
2022-10-06T19:35:22.495Z,73.63
2022-10-06T19:37:52.288Z,73.37
2022-10-06T19:40:27.685Z,73.26
2022-10-06T19:43:04.611Z,73.80
2022-10-06T19:45:38.685Z,74.03
2022-10-06T19:48:20.898Z,73.55
2022-10-06T19:50:52.347Z,73.33
2022-10-06T19:53:27.741Z,73.11
2022-10-06T19:56:04.323Z,72.76
2022-10-06T19:58:45.335Z,72.61
2022-10-06T20:01:24.950Z,73.45
2022-10-06T20:04:02.120Z,73.42
2022-10-06T20:06:32.252Z,73.12
2022-10-06T20:09:11.021Z,73.03
2022-10-06T20:11:48.028Z,72.85
2022-10-06T20:14:21.069Z,72.73
2022-10-06T20:17:00.853Z,72.70
2022-10-06T20:19:47.230Z,73.31
2022-10-06T20:22:33.298Z,73.92
2022-10-06T20:25:13.492Z,73.79
2022-10-06T20:27:52.622Z,73.72
2022-10-06T20:30:38.449Z,73.59
2022-10-06T20:33:21.165Z,73.90
2022-10-06T20:36:04.875Z,75.56
2022-10-06T20:39:01.025Z,76.09
2022-10-06T20:41:40.617Z,75.78
2022-10-06T20:44:14.924Z,75.84
2022-10-06T20:46:52.935Z,76.61
2022-10-06T20:49:29.190Z,76.69
2022-10-06T20:52:02.928Z,76.04
2022-10-06T20:54:42.982Z,75.37
2022-10-06T20:57:13.122Z,74.29
2022-10-06T20:59:55.106Z,73.81
2022-10-06T21:02:32.171Z,73.16
2022-10-06T21:05:08.926Z,72.77
2022-10-06T21:07:40.457Z,73.08
2022-10-06T21:10:23.046Z,72.47
2022-10-06T21:13:05.577Z,72.39
2022-10-06T21:15:53.312Z,72.34
2022-10-06T21:18:39.996Z,72.22
2022-10-06T21:21:24.387Z,72.42
2022-10-06T21:24:06.893Z,72.54
2022-10-06T21:26:52.758Z,73.12
2022-10-06T21:29:33.848Z,73.98
2022-10-06T21:32:27.848Z,75.56
2022-10-06T21:35:15.874Z,75.83
2022-10-06T21:37:56.614Z,74.84
2022-10-06T21:40:41.872Z,74.52
2022-10-06T21:43:25.609Z,74.29
2022-10-06T21:46:27.918Z,74.42
2022-10-06T21:49:10.422Z,74.92
2022-10-06T21:51:58.593Z,75.04
2022-10-06T21:54:35.634Z,74.85
2022-10-06T21:57:45.940Z,74.68
2022-10-06T22:00:43.515Z,74.61
2022-10-06T22:03:19.676Z,74.65
2022-10-06T22:05:58.454Z,74.41
2022-10-06T22:08:42.060Z,74.92
2022-10-06T22:11:31.111Z,75.68
2022-10-06T22:14:14.871Z,75.91
2022-10-06T22:17:02.509Z,75.80
2022-10-06T22:19:45.848Z,76.98
2022-10-06T22:22:35.035Z,76.45
2022-10-06T22:25:32.714Z,76.03
2022-10-06T22:28:21.412Z,76.50
2022-10-06T22:31:19.018Z,77.13
2022-10-06T22:34:16.645Z,77.23
2022-10-06T22:36:59.763Z,77.17
2022-10-06T22:39:42.326Z,76.99
2022-10-06T22:42:36.742Z,77.88
2022-10-06T22:45:26.814Z,77.52
2022-10-06T22:48:30.102Z,78.03
2022-10-06T22:51:30.805Z,77.98
2022-10-06T22:54:42.754Z,77.87
2022-10-06T22:57:24.920Z,77.70
2022-10-06T23:00:13.168Z,78.98
2022-10-06T23:02:57.119Z,78.78
2022-10-06T23:05:56.925Z,78.77
2022-10-06T23:09:06.214Z,79.31
2022-10-06T23:12:03.339Z,78.73
2022-10-06T23:15:13.989Z,79.05
2022-10-06T23:18:02.391Z,79.75
2022-10-06T23:21:22.233Z,80.04
2022-10-06T23:24:19.482Z,80.49
2022-10-06T23:27:24.059Z,80.96
2022-10-06T23:30:29.650Z,80.08
2022-10-06T23:33:22.820Z,81.31
2022-10-06T23:36:26.010Z,82.75
2022-10-06T23:39:39.840Z,83.18
2022-10-06T23:42:28.468Z,84.37
2022-10-06T23:45:23.867Z,81.98
2022-10-06T23:48:41.877Z,81.74
2022-10-06T23:51:21.975Z,82.57
2022-10-06T23:54:20.774Z,82.05
2022-10-06T23:57:09.384Z,81.64
2022-10-06T23:59:58.735Z,81.37
